createdAt,value
2023-05-05T00:01:34.119Z,11.05
2023-05-05T00:04:01.500Z,10.82
2023-05-05T00:06:28.730Z,11.17
2023-05-05T00:08:56.175Z,10.94
2023-05-05T00:11:23.487Z,11.00
2023-05-05T00:13:51.476Z,10.80
2023-05-05T00:16:18.715Z,10.87
2023-05-05T00:18:45.932Z,10.77
2023-05-05T00:21:13.176Z,11.09
2023-05-05T00:23:40.339Z,10.76
2023-05-05T00:26:07.506Z,11.15
2023-05-05T00:28:34.732Z,10.87
2023-05-05T00:31:02.255Z,10.86
2023-05-05T00:33:29.508Z,10.60
2023-05-05T00:35:56.683Z,10.97
2023-05-05T00:38:23.819Z,10.83
2023-05-05T00:40:50.999Z,10.61
2023-05-05T00:43:18.136Z,10.82
2023-05-05T00:45:47.818Z,10.67
2023-05-05T00:48:16.954Z,10.96
2023-05-05T00:50:45.031Z,10.58
2023-05-05T00:53:12.254Z,10.48
2023-05-05T00:55:40.380Z,10.34
2023-05-05T00:58:07.925Z,10.45
2023-05-05T01:00:35.082Z,10.23
2023-05-05T01:03:03.166Z,10.48
2023-05-05T01:05:51.483Z,10.43
2023-05-05T01:08:46.849Z,10.43
2023-05-05T01:11:45.540Z,10.31
2023-05-05T01:14:17.503Z,10.24
2023-05-05T01:17:17.233Z,10.23
2023-05-05T01:20:25.488Z,10.15
2023-05-05T01:23:28.232Z,10.41
2023-05-05T01:26:27.154Z,9.96
2023-05-05T01:29:35.702Z,10.16
2023-05-05T01:32:15.869Z,10.27
2023-05-05T01:34:57.602Z,9.85
2023-05-05T01:37:36.832Z,9.83
2023-05-05T01:40:08.315Z,10.21
2023-05-05T01:42:40.995Z,9.98
2023-05-05T01:45:12.750Z,10.11
2023-05-05T01:47:43.300Z,9.94
2023-05-05T01:50:12.202Z,9.93
2023-05-05T01:52:42.246Z,10.02
2023-05-05T01:55:11.476Z,9.75
2023-05-05T01:57:42.520Z,9.67
2023-05-05T02:00:11.560Z,9.65
2023-05-05T02:02:41.175Z,9.84
2023-05-05T02:05:10.077Z,9.79
2023-05-05T02:07:38.197Z,9.96
2023-05-05T02:10:08.794Z,9.83
2023-05-05T02:12:37.469Z,9.68
2023-05-05T02:15:06.077Z,9.61
2023-05-05T02:17:33.422Z,9.58
2023-05-05T02:20:03.846Z,9.53
2023-05-05T02:22:31.670Z,9.57
2023-05-05T02:24:58.881Z,9.78
2023-05-05T02:27:27.972Z,9.63
2023-05-05T02:30:01.676Z,9.47
2023-05-05T02:32:37.478Z,9.47
2023-05-05T02:35:19.633Z,9.58
2023-05-05T02:37:55.210Z,9.24
2023-05-05T02:40:28.478Z,9.38
2023-05-05T02:43:00.837Z,9.41
2023-05-05T02:45:28.597Z,9.28
2023-05-05T02:47:55.978Z,9.46
2023-05-05T02:50:23.192Z,9.39
2023-05-05T02:52:50.312Z,9.44
2023-05-05T02:55:17.542Z,9.25
2023-05-05T02:57:53.563Z,9.30
2023-05-05T03:00:59.877Z,9.30
2023-05-05T03:03:44.580Z,9.34
2023-05-05T03:06:17.906Z,9.20
2023-05-05T03:09:09.611Z,9.31
2023-05-05T03:12:03.953Z,9.36
2023-05-05T03:14:38.852Z,9.46
2023-05-05T03:17:07.091Z,9.45
2023-05-05T03:19:36.978Z,9.26
2023-05-05T03:22:04.864Z,9.33
2023-05-05T03:24:32.110Z,9.24
2023-05-05T03:26:59.244Z,9.26
2023-05-05T03:29:26.706Z,9.44
2023-05-05T03:31:53.884Z,9.39
2023-05-05T03:34:21.053Z,9.12
2023-05-05T03:36:48.199Z,9.24
2023-05-05T03:39:15.334Z,9.29
2023-05-05T03:41:42.479Z,9.17
2023-05-05T03:44:09.673Z,9.30
2023-05-05T03:46:36.836Z,9.31
2023-05-05T03:49:03.990Z,9.19
2023-05-05T03:51:31.654Z,9.22
2023-05-05T03:53:58.805Z,9.03
2023-05-05T03:56:26.045Z,9.09
2023-05-05T03:58:53.183Z,9.10
2023-05-05T04:01:20.414Z,9.13
2023-05-05T04:03:47.895Z,9.12
2023-05-05T04:06:15.279Z,9.30
2023-05-05T04:08:42.404Z,9.08
2023-05-05T04:11:09.567Z,9.29
2023-05-05T04:13:36.741Z,9.21
2023-05-05T04:16:04.203Z,9.27
2023-05-05T04:18:31.841Z,9.30
2023-05-05T04:20:59.031Z,9.17
2023-05-05T04:23:26.148Z,9.40
2023-05-05T04:25:53.308Z,9.43
2023-05-05T04:28:21.741Z,9.38
2023-05-05T04:30:49.337Z,9.38
2023-05-05T04:33:16.469Z,9.59
2023-05-05T04:35:43.607Z,9.35
2023-05-05T04:38:10.762Z,9.59
2023-05-05T04:40:41.308Z,9.70
2023-05-05T04:43:08.521Z,9.63
2023-05-05T04:45:35.801Z,9.83
2023-05-05T04:48:05.027Z,9.70
2023-05-05T04:50:32.564Z,9.70
2023-05-05T04:52:59.713Z,9.65
2023-05-05T04:55:28.228Z,9.63
2023-05-05T04:57:55.432Z,9.93
2023-05-05T05:00:23.245Z,9.92
2023-05-05T05:02:50.545Z,9.99
2023-05-05T05:05:17.798Z,9.77
2023-05-05T05:07:45.866Z,10.23
2023-05-05T05:10:13.033Z,10.39
2023-05-05T05:12:40.503Z,9.90
2023-05-05T05:15:08.785Z,9.99
2023-05-05T05:17:35.981Z,10.09
2023-05-05T05:20:04.884Z,9.91
2023-05-05T05:22:32.160Z,9.95
2023-05-05T05:24:59.377Z,10.20
2023-05-05T05:27:26.534Z,10.11
2023-05-05T05:29:53.664Z,10.39
2023-05-05T05:32:20.855Z,10.49
2023-05-05T05:34:48.005Z,10.41
2023-05-05T05:37:15.174Z,10.39
2023-05-05T05:39:43.770Z,10.33
2023-05-05T05:42:11.063Z,10.38
2023-05-05T05:44:38.196Z,10.30
2023-05-05T05:47:05.521Z,10.38
2023-05-05T05:49:32.667Z,10.19
2023-05-05T05:51:59.799Z,10.39
2023-05-05T05:54:26.944Z,10.48
2023-05-05T05:56:54.092Z,10.48
2023-05-05T05:59:21.236Z,10.37
2023-05-05T06:01:48.381Z,10.52
2023-05-05T06:04:15.509Z,10.55
2023-05-05T06:06:42.731Z,10.60
2023-05-05T06:09:09.858Z,11.03
2023-05-05T06:11:37.070Z,11.15
2023-05-05T06:14:04.288Z,11.29
2023-05-05T06:16:31.685Z,11.63
2023-05-05T06:18:58.938Z,11.85
2023-05-05T06:21:26.061Z,12.30
2023-05-05T06:23:53.195Z,12.19
2023-05-05T06:26:21.459Z,11.66
2023-05-05T06:28:48.602Z,11.54
2023-05-05T06:31:15.769Z,11.70
2023-05-05T06:33:43.085Z,11.64
2023-05-05T06:36:10.271Z,12.17
2023-05-05T06:38:37.421Z,12.26
2023-05-05T06:41:04.809Z,12.32
2023-05-05T06:43:32.001Z,12.32
2023-05-05T06:45:59.144Z,12.61
2023-05-05T06:48:26.305Z,12.54
2023-05-05T06:50:53.433Z,12.97
2023-05-05T06:53:20.717Z,12.49
2023-05-05T06:55:48.156Z,12.70
2023-05-05T06:58:15.328Z,13.19
2023-05-05T07:00:42.737Z,12.97
2023-05-05T07:03:10.274Z,13.56
2023-05-05T07:05:37.479Z,13.19
2023-05-05T07:08:04.753Z,13.13
2023-05-05T07:10:32.829Z,13.11
2023-05-05T07:13:00.038Z,13.19
2023-05-05T07:15:29.567Z,13.29
2023-05-05T07:17:57.761Z,13.72
2023-05-05T07:20:25.368Z,13.74
2023-05-05T07:22:52.530Z,13.94
2023-05-05T07:25:19.871Z,13.86
2023-05-05T07:27:47.023Z,13.84
2023-05-05T07:30:18.106Z,14.41
2023-05-05T07:32:46.654Z,14.71
2023-05-05T07:35:13.955Z,14.68
2023-05-05T07:37:41.105Z,15.13
2023-05-05T07:40:09.021Z,16.05
2023-05-05T07:42:36.476Z,15.67
2023-05-05T07:45:05.189Z,16.11
2023-05-05T07:47:32.702Z,15.67
2023-05-05T07:50:00.865Z,16.98
2023-05-05T07:52:44.139Z,17.07
2023-05-05T07:55:13.552Z,17.53
2023-05-05T07:57:41.806Z,18.62
2023-05-05T08:00:10.628Z,17.64
2023-05-05T08:02:38.130Z,18.05
2023-05-05T08:05:05.957Z,17.69
2023-05-05T08:07:33.281Z,18.13
2023-05-05T08:10:00.568Z,18.92
2023-05-05T08:12:27.738Z,18.98
2023-05-05T08:14:54.871Z,19.61
2023-05-05T08:17:22.174Z,20.11
2023-05-05T08:19:52.938Z,20.19
2023-05-05T08:22:22.016Z,19.93
2023-05-05T08:24:49.141Z,19.93
2023-05-05T08:27:16.355Z,19.06
2023-05-05T08:29:43.489Z,19.68
2023-05-05T08:32:10.791Z,19.75
2023-05-05T08:34:37.949Z,19.39
2023-05-05T08:37:05.093Z,18.93
2023-05-05T08:39:32.242Z,19.17
2023-05-05T08:41:59.381Z,18.95
2023-05-05T08:44:27.214Z,18.11
2023-05-05T08:46:56.013Z,18.14
2023-05-05T08:49:25.356Z,17.48
2023-05-05T08:51:54.801Z,17.60
2023-05-05T08:54:27.283Z,17.46
2023-05-05T08:57:01.810Z,17.11
2023-05-05T08:59:33.344Z,17.22
2023-05-05T09:02:01.974Z,17.16
2023-05-05T09:04:29.283Z,17.67
2023-05-05T09:07:01.082Z,18.45
2023-05-05T09:09:29.309Z,18.76
2023-05-05T09:11:58.810Z,19.58
2023-05-05T09:14:25.970Z,20.76
2023-05-05T09:16:53.157Z,19.83
2023-05-05T09:19:20.517Z,20.96
2023-05-05T09:21:50.419Z,20.72
2023-05-05T09:24:18.612Z,19.98
2023-05-05T09:26:47.826Z,19.62
2023-05-05T09:29:22.631Z,19.58
2023-05-05T09:32:11.077Z,18.81
2023-05-05T09:34:38.289Z,18.61
2023-05-05T09:37:06.030Z,19.00
2023-05-05T09:39:33.257Z,18.78
2023-05-05T09:42:01.222Z,19.52
2023-05-05T09:44:37.533Z,19.48
2023-05-05T09:47:09.475Z,19.58
2023-05-05T09:49:42.194Z,20.11
2023-05-05T09:52:16.381Z,20.31
2023-05-05T09:54:44.056Z,19.96
2023-05-05T09:57:33.469Z,20.42
2023-05-05T10:00:04.195Z,20.45
2023-05-05T10:02:40.641Z,20.25
2023-05-05T10:05:11.334Z,20.41
2023-05-05T10:07:41.200Z,20.73
2023-05-05T10:10:12.262Z,20.94
2023-05-05T10:12:40.577Z,21.08
2023-05-05T10:15:11.066Z,21.51
2023-05-05T10:20:20.532Z,21.55
2023-05-05T10:22:53.348Z,21.53
2023-05-05T10:25:35.090Z,21.31
2023-05-05T10:28:09.621Z,21.75
2023-05-05T10:30:44.132Z,21.01
2023-05-05T10:35:57.211Z,21.23
2023-05-05T10:38:29.288Z,20.52
2023-05-05T10:40:59.174Z,21.18
2023-05-05T10:43:30.829Z,21.76
2023-05-05T10:45:59.358Z,21.71
2023-05-05T10:48:40.785Z,21.68
2023-05-05T10:51:39.460Z,20.93
2023-05-05T10:54:10.529Z,20.92
2023-05-05T10:56:41.744Z,20.78
2023-05-05T10:59:36.732Z,21.33
2023-05-05T11:02:27.211Z,21.21
2023-05-05T11:05:17.930Z,21.16
2023-05-05T11:07:47.229Z,20.78
2023-05-05T11:10:16.647Z,21.25
2023-05-05T11:12:57.687Z,20.83
2023-05-05T11:15:27.769Z,21.01
2023-05-05T11:18:07.812Z,20.72
2023-05-05T11:20:35.256Z,20.69
2023-05-05T11:23:02.293Z,20.45
2023-05-05T11:25:35.341Z,20.70
2023-05-05T11:28:14.536Z,20.32
2023-05-05T11:30:57.921Z,20.45
2023-05-05T11:33:32.338Z,20.44
2023-05-05T11:36:07.617Z,20.49
2023-05-05T11:39:08.747Z,20.43
2023-05-05T11:42:26.730Z,20.49
2023-05-05T11:44:54.890Z,20.66
2023-05-05T11:47:21.914Z,20.32
2023-05-05T11:49:49.459Z,20.14
2023-05-05T11:52:16.629Z,20.19
2023-05-05T11:54:49.039Z,20.17
2023-05-05T11:57:21.151Z,20.02
2023-05-05T12:00:01.290Z,20.05
2023-05-05T12:02:30.037Z,20.26
2023-05-05T12:04:59.253Z,20.08
2023-05-05T12:07:30.383Z,20.29
2023-05-05T12:09:58.182Z,20.58
2023-05-05T12:12:40.474Z,20.89
2023-05-05T12:15:10.159Z,21.32
2023-05-05T12:17:44.752Z,21.29
2023-05-05T12:20:13.209Z,21.27
2023-05-05T12:22:41.128Z,21.40
2023-05-05T12:25:09.627Z,21.67
2023-05-05T12:27:36.983Z,21.26
2023-05-05T12:30:16.736Z,21.13
2023-05-05T12:32:45.642Z,21.26
2023-05-05T12:35:13.835Z,21.24
2023-05-05T12:37:42.239Z,21.10
2023-05-05T12:40:49.321Z,21.04
2023-05-05T12:43:34.116Z,21.25
2023-05-05T12:46:06.916Z,21.20
2023-05-05T12:48:37.785Z,21.37
2023-05-05T12:51:23.616Z,21.15
2023-05-05T12:54:11.774Z,21.06
2023-05-05T12:56:45.421Z,20.98
2023-05-05T12:59:32.792Z,21.50
2023-05-05T13:02:01.444Z,21.79
2023-05-05T13:04:28.941Z,22.01
2023-05-05T13:07:14.556Z,22.37
2023-05-05T13:09:42.382Z,21.83
2023-05-05T13:12:12.319Z,22.53
2023-05-05T13:14:40.906Z,22.38
2023-05-05T13:17:08.302Z,22.15
2023-05-05T13:19:35.830Z,21.75
2023-05-05T13:22:03.112Z,22.04
2023-05-05T13:24:46.619Z,21.80
2023-05-05T13:27:17.426Z,21.76
2023-05-05T13:29:44.656Z,21.44
2023-05-05T13:32:11.846Z,21.46
2023-05-05T13:34:39.348Z,21.22
2023-05-05T13:37:06.816Z,20.98
2023-05-05T13:39:34.034Z,20.98
2023-05-05T13:42:01.176Z,20.93
2023-05-05T13:44:28.361Z,21.13
2023-05-05T13:46:55.559Z,20.98
2023-05-05T13:49:22.758Z,20.79
2023-05-05T13:51:49.916Z,20.88
2023-05-05T13:54:17.170Z,20.83
2023-05-05T13:56:44.342Z,20.71
2023-05-05T13:59:11.524Z,20.83
2023-05-05T14:01:39.308Z,20.74
2023-05-05T14:04:06.593Z,20.74
2023-05-05T14:06:33.964Z,20.73
2023-05-05T14:09:01.357Z,20.58
2023-05-05T14:11:28.529Z,20.60
2023-05-05T14:13:55.690Z,20.62
2023-05-05T14:16:22.861Z,20.66
2023-05-05T14:18:50.005Z,20.65
2023-05-05T14:21:17.196Z,20.39
2023-05-05T14:23:44.409Z,20.29
2023-05-05T14:26:11.607Z,20.43
2023-05-05T14:28:38.753Z,20.46
2023-05-05T14:31:06.041Z,20.58
2023-05-05T14:33:33.203Z,20.55
2023-05-05T14:36:00.360Z,20.48
2023-05-05T14:38:27.567Z,20.39
2023-05-05T14:40:54.726Z,20.33
2023-05-05T14:43:21.887Z,20.32
2023-05-05T14:45:49.043Z,20.25
2023-05-05T14:48:16.593Z,20.42
2023-05-05T14:50:46.258Z,20.36
2023-05-05T14:53:13.525Z,20.57
2023-05-05T14:55:40.738Z,20.57
2023-05-05T14:58:07.880Z,20.52
2023-05-05T15:00:35.025Z,20.34
2023-05-05T15:03:02.476Z,20.30
2023-05-05T15:05:29.666Z,20.26
2023-05-05T15:07:56.792Z,20.15
2023-05-05T15:10:23.945Z,20.22
2023-05-05T15:12:51.208Z,20.21
2023-05-05T15:15:18.392Z,20.38
2023-05-05T15:17:45.786Z,20.05
2023-05-05T15:20:13.118Z,20.07
2023-05-05T15:22:40.227Z,20.08
2023-05-05T15:25:12.060Z,20.17
2023-05-05T15:27:39.727Z,20.12
2023-05-05T15:30:07.801Z,20.02
2023-05-05T15:32:35.058Z,20.15
2023-05-05T15:35:02.295Z,20.05
2023-05-05T15:37:29.521Z,20.03
2023-05-05T15:39:56.907Z,19.99
2023-05-05T15:42:24.831Z,19.89
2023-05-05T15:44:52.376Z,20.01
2023-05-05T15:47:19.519Z,19.85
2023-05-05T15:49:46.642Z,19.67
2023-05-05T15:52:14.013Z,19.97
2023-05-05T15:54:41.436Z,19.77
2023-05-05T15:57:09.136Z,19.74
2023-05-05T15:59:36.433Z,19.74
2023-05-05T16:02:03.648Z,19.72
2023-05-05T16:04:30.959Z,19.63
2023-05-05T16:06:58.099Z,19.72
2023-05-05T16:09:25.242Z,19.69
2023-05-05T16:11:55.536Z,19.71
2023-05-05T16:14:22.728Z,19.60
2023-05-05T16:16:49.911Z,19.69
2023-05-05T16:19:18.050Z,19.49
2023-05-05T16:21:45.508Z,19.55
2023-05-05T16:24:16.316Z,19.55
2023-05-05T16:26:43.801Z,19.47
2023-05-05T16:29:11.821Z,19.29
2023-05-05T16:31:39.501Z,19.08
2023-05-05T16:34:07.018Z,19.31
2023-05-05T16:36:34.172Z,19.19
2023-05-05T16:39:01.342Z,19.24
2023-05-05T16:41:28.562Z,19.25
2023-05-05T16:43:56.225Z,19.17
2023-05-05T16:46:23.516Z,19.16
2023-05-05T16:48:50.893Z,19.05
2023-05-05T16:51:18.021Z,19.08
2023-05-05T16:56:12.964Z,19.16
2023-05-05T16:58:40.481Z,18.93
2023-05-05T17:01:07.620Z,18.92
2023-05-05T17:03:34.775Z,18.86
2023-05-05T17:06:02.018Z,19.07
2023-05-05T17:08:29.216Z,19.05
2023-05-05T17:10:56.353Z,19.10
2023-05-05T17:13:23.552Z,18.85
2023-05-05T17:15:51.400Z,18.97
2023-05-05T17:18:21.070Z,18.97
2023-05-05T17:20:49.280Z,19.05
2023-05-05T17:23:16.637Z,19.08
2023-05-05T17:25:43.885Z,18.97
2023-05-05T17:28:11.139Z,18.90
2023-05-05T17:30:38.304Z,19.00
2023-05-05T17:33:05.644Z,18.51
2023-05-05T17:35:32.899Z,18.75
2023-05-05T17:38:00.122Z,18.35
2023-05-05T17:40:27.256Z,18.15
2023-05-05T17:42:54.490Z,17.98
2023-05-05T17:45:21.640Z,17.90
2023-05-05T17:47:48.832Z,17.83
2023-05-05T17:50:16.060Z,17.59
2023-05-05T17:52:44.991Z,17.49
2023-05-05T17:55:12.723Z,17.05
2023-05-05T17:57:40.013Z,16.89
2023-05-05T18:00:08.786Z,16.57
2023-05-05T18:02:37.128Z,16.49
2023-05-05T18:05:05.321Z,16.38
2023-05-05T18:07:33.602Z,16.42
2023-05-05T18:10:00.767Z,16.33
2023-05-05T18:12:27.976Z,16.34
2023-05-05T18:14:55.156Z,16.39
2023-05-05T18:17:22.365Z,16.34
2023-05-05T18:19:49.561Z,16.57
2023-05-05T18:22:17.398Z,16.44
2023-05-05T18:24:46.373Z,16.02
2023-05-05T18:27:13.529Z,15.49
2023-05-05T18:29:40.756Z,15.19
2023-05-05T18:32:07.937Z,15.56
2023-05-05T18:34:35.132Z,15.76
2023-05-05T18:37:02.305Z,15.94
2023-05-05T18:39:29.548Z,15.47
2023-05-05T18:41:56.763Z,15.98
2023-05-05T18:44:23.957Z,16.00
2023-05-05T18:46:51.474Z,15.94
2023-05-05T18:49:18.749Z,15.97
2023-05-05T18:51:45.926Z,15.98
2023-05-05T18:54:13.060Z,15.77
2023-05-05T18:56:40.191Z,15.97
2023-05-05T18:59:07.730Z,15.54
2023-05-05T19:01:34.871Z,15.91
2023-05-05T19:04:02.051Z,15.60
2023-05-05T19:06:29.216Z,15.46
2023-05-05T19:08:56.721Z,15.56
2023-05-05T19:11:24.145Z,15.74
2023-05-05T19:13:51.344Z,15.52
2023-05-05T19:16:18.636Z,15.71
2023-05-05T19:18:45.919Z,15.86
2023-05-05T19:21:13.088Z,15.44
2023-05-05T19:23:40.899Z,15.89
2023-05-05T19:26:08.094Z,15.13
2023-05-05T19:28:35.284Z,15.25
2023-05-05T19:31:02.403Z,14.96
2023-05-05T19:33:29.550Z,14.80
2023-05-05T19:35:56.701Z,14.77
2023-05-05T19:38:23.961Z,14.94
2023-05-05T19:40:51.126Z,14.88
2023-05-05T19:43:18.284Z,14.70
2023-05-05T19:45:45.774Z,14.89
2023-05-05T19:48:12.975Z,14.89
2023-05-05T19:50:40.296Z,15.19
2023-05-05T19:53:07.437Z,15.06
2023-05-05T19:55:34.591Z,15.29
2023-05-05T19:58:01.730Z,14.83
2023-05-05T20:00:28.893Z,15.16
2023-05-05T20:02:56.165Z,15.50
2023-05-05T20:05:23.434Z,15.06
2023-05-05T20:07:50.750Z,14.99
2023-05-05T20:10:17.942Z,14.66
2023-05-05T20:12:48.258Z,14.59
2023-05-05T20:15:19.882Z,14.58
2023-05-05T20:17:48.242Z,14.66
2023-05-05T20:20:22.660Z,14.58
2023-05-05T20:22:49.868Z,14.90
2023-05-05T20:25:17.294Z,14.36
2023-05-05T20:27:45.711Z,14.09
2023-05-05T20:30:13.619Z,14.04
2023-05-05T20:32:41.348Z,13.98
2023-05-05T20:35:09.386Z,14.03
2023-05-05T20:37:36.610Z,14.22
2023-05-05T20:40:04.062Z,14.35
2023-05-05T20:42:31.278Z,13.92
2023-05-05T20:45:01.137Z,14.10
2023-05-05T20:47:28.353Z,14.29
2023-05-05T20:49:55.539Z,14.36
2023-05-05T20:52:22.761Z,14.24
2023-05-05T20:54:49.907Z,14.08
2023-05-05T20:57:17.025Z,14.36
2023-05-05T20:59:44.182Z,14.18
2023-05-05T21:02:11.386Z,14.08
2023-05-05T21:04:38.595Z,14.26
2023-05-05T21:07:06.529Z,14.03
2023-05-05T21:09:35.251Z,14.14
2023-05-05T21:12:02.500Z,14.45
2023-05-05T21:14:29.643Z,14.10
2023-05-05T21:16:56.955Z,14.34
2023-05-05T21:19:24.126Z,14.14
2023-05-05T21:21:51.282Z,14.02
2023-05-05T21:24:18.460Z,14.34
2023-05-05T21:26:45.751Z,14.23
2023-05-05T21:29:12.948Z,14.10
2023-05-05T21:31:40.552Z,14.13
2023-05-05T21:34:07.730Z,13.94
2023-05-05T21:36:34.983Z,13.76
2023-05-05T21:39:02.176Z,14.01
2023-05-05T21:41:29.318Z,14.02
2023-05-05T21:43:57.827Z,14.21
2023-05-05T21:46:25.133Z,14.17
2023-05-05T21:48:52.414Z,14.20
2023-05-05T21:51:20.018Z,14.08
2023-05-05T21:53:47.169Z,14.13
2023-05-05T21:56:14.373Z,14.08
2023-05-05T21:58:41.564Z,14.07
2023-05-05T22:01:08.774Z,13.95
2023-05-05T22:03:36.200Z,14.00
2023-05-05T22:06:03.558Z,14.05
2023-05-05T22:08:30.785Z,14.18
2023-05-05T22:10:57.989Z,14.36
2023-05-05T22:13:25.147Z,14.11
2023-05-05T22:15:52.476Z,14.24
2023-05-05T22:18:19.748Z,14.20
2023-05-05T22:20:47.090Z,14.10
2023-05-05T22:23:14.466Z,13.87
2023-05-05T22:25:41.937Z,14.44
2023-05-05T22:28:09.099Z,14.43
2023-05-05T22:30:36.305Z,13.90
2023-05-05T22:33:03.720Z,14.37
2023-05-05T22:35:31.135Z,14.43
2023-05-05T22:37:58.427Z,14.13
2023-05-05T22:40:25.618Z,13.51
2023-05-05T22:42:52.958Z,13.53
2023-05-05T22:45:21.809Z,13.53
2023-05-05T22:47:50.320Z,13.28
2023-05-05T22:50:18.200Z,13.51
2023-05-05T22:52:45.581Z,13.34
2023-05-05T22:55:14.499Z,13.49
2023-05-05T22:57:42.317Z,13.76
2023-05-05T23:00:10.669Z,13.53
2023-05-05T23:02:38.653Z,13.77
2023-05-05T23:05:06.626Z,13.46
2023-05-05T23:07:34.623Z,13.20
2023-05-05T23:10:03.110Z,13.09
2023-05-05T23:12:30.586Z,13.20
2023-05-05T23:14:57.730Z,13.40
2023-05-05T23:17:24.904Z,13.03
2023-05-05T23:19:52.109Z,12.97
2023-05-05T23:22:19.373Z,13.13
2023-05-05T23:24:46.559Z,13.15
2023-05-05T23:27:13.698Z,13.76
2023-05-05T23:29:40.841Z,14.07
2023-05-05T23:32:08.259Z,14.11
2023-05-05T23:34:35.381Z,14.05
2023-05-05T23:37:04.065Z,14.21
2023-05-05T23:39:34.600Z,14.17
2023-05-05T23:42:01.725Z,13.88
2023-05-05T23:44:28.881Z,13.97
2023-05-05T23:46:56.029Z,13.94
2023-05-05T23:49:24.893Z,14.28
2023-05-05T23:51:52.788Z,14.08
2023-05-05T23:54:19.981Z,13.80
2023-05-05T23:56:49.946Z,13.74
2023-05-05T23:59:17.146Z,13.59
